Updated27/01/2020 15:00 
 

GeoURL
free counters
Scottish Weather Network UK Weather Network Cumulus Top Weather Sites

Peebles Weather - Nearby METAR Reports

Raw Data, Raw Data Expanded

Ignore low humidity and Dew Point values. Something wrong with the sensor.
Daytime temperatures are in direct sunlight so may be higher than official air temperature values.
As with any other website, we log your IP address and browser type in the server logs for diagnostic reasons. Cookies are used to record visit time and gauges preferences. No personal information is stored or processed.

All times are in local time (GMT, or BST in summer) unless specified.

2020/01/27 14:50 EGPH 271450Z 24014KT CAVOK 05/M00 Q0989
6.3°C 0.0 mm 2.1 mm 2.4 mm 4.2 mph 8.3 mph 984.9 hPa 59% X-Ray Solar Flare Level
Planetary K-Index
Planetary K-Index History
Station Warn Rain Snow Flood Wind Ltng Heat Cold Glob Moon Temp Rain 1h Rain Mon Rain 24h Wind 10m Gust Pressure Hum Proton Levels
Snow
0.534 m Waxing Crescent Cold F1-SW F: A: Kp:0 SSN:0
Show Active warnings in: Lothian & Borders :
valid from 27.01.2020 20:00 CET Until 28.01.2020 11:00 CET
Wintry showers and ice leading to some travel disruption. Some injuries from slips and falls on icy surfaces. Probably some icy patches on some untreated roads, pavements and cycle paths 
Warning data courtesy of and Copyright © EUMETNET-MeteoAlarm. Time delays between this website and the www.meteoalarm.eu website are possible, for the most up to date information about alert levels as published by the participating National Meteorological Services please use www.meteoalarm.eu. Used with permission. Warnings provided by .

METAR Reports

 

EGPH - Edinburgh Airpor, United Kingdom
Distance from station: NNW 22mi, 36km
Updated: 27/01/2020 14:50
Clear
Clear
 Wind from WSW
Wind: WSW 16 mph , 26 km/h
Temperature: 5°C
Wind Chill: 1°C
Dew Point: 0°C
Humidity: 70%
Barometer: 989 hPa
Summary: Clear
Visibility: greater than 7 miles , 10 km
2020/01/27 14:50 EGPH 271450Z 24014KT CAVOK 05/M00 Q0989
EGOM - Spadeadam, United Kingdom
Distance from station: SSE 49mi, 79km
Updated: 27/01/2020 14:50
Few Clouds
Few Clouds
 Wind from SW
Wind: SW 15 mph , 24 km/h, Gust: 28 mph , 44 km/h
Temperature: 4°C
Wind Chill: -1°C
Dew Point: 0°C
Humidity: 75%
Barometer: 990 hPa
Clouds: Few Clouds
Visibility: 6 miles , 10 km
Cloud details: Few Clouds 914 m
2020/01/27 14:50 EGOM 271450Z 22013G24KT 9999 FEW030 04/00 Q0990 BLU
 
EGNC - Carlisle, United Kingdom
Distance from station: SSE 51mi, 82km
Updated: 27/01/2020 14:50
Partly cloudy
Partly cloudy
 Wind from SW
Wind: SW 14 mph , 22 km/h
Temperature: 6°C
Wind Chill: 2°C
Dew Point: 1°C
Humidity: 71%
Barometer: 991 hPa
Clouds: Partly cloudy
Visibility: 6 miles , 10 km
Cloud details: Partly cloudy 1067 m
2020/01/27 14:50 EGNC 271450Z 23012KT 9999 SCT035 06/01 Q0991
EGPF - Glasgow Airport, United Kingdom
Distance from station: WNW 51mi, 82km
Updated: 27/01/2020 14:50
Mostly cloudy
Mostly cloudy
 Wind from SSW
Wind: SSW 14 mph , 22 km/h, Gust: 25 mph , 41 km/h
Temperature: 5°C
Wind Chill: 1°C
Dew Point: 1°C
Humidity: 76%
Barometer: 989 hPa
Clouds: Mostly cloudy
Visibility: 6 miles , 10 km
Cloud details: Mostly cloudy 1067 m
2020/01/27 14:50 EGPF 271450Z AUTO 20012G22KT 9999 BKN035 05/01 Q0989
 
EGQL - Leuchars Raf, United Kingdom
Distance from station: NNE 53mi, 85km
Updated: 27/01/2020 14:50
Few Clouds
Few Clouds
 Wind from WSW
Wind: WSW 18 mph , 30 km/h
Temperature: 5°C
Wind Chill: 0°C
Dew Point: 0°C
Humidity: 70%
Barometer: 988 hPa
Clouds: Few Clouds
Visibility: 6 miles , 10 km
Cloud details: Few Clouds 975 m
2020/01/27 14:50 EGQL 271450Z 24016KT 9999 FEW032 05/M00 Q0988 RMK BLU
EGPK - Prestwick(Civ/Na, United Kingdom
Distance from station: W 55mi, 89km
Updated: 27/01/2020 14:50
Partly cloudy
Partly cloudy
 Wind from S
Wind: S 12 mph , 19 km/h
Temperature: 6°C
Wind Chill: 3°C
Dew Point: 0°C
Humidity: 66%
Barometer: 989 hPa
Clouds: Partly cloudy
Visibility: 6 miles , 10 km
Cloud details: Few Clouds 579 m
Partly cloudy 732 m
2020/01/27 14:50 EGPK 271450Z 19010KT 9999 FEW019 SCT024 06/00 Q0989
 
EGPN - Dundee/Riverside, United Kingdom
Distance from station: N 56mi, 90km
Updated: 27/01/2020 14:50
Few Clouds
Few Clouds
 Wind from WSW
Wind: WSW 20 mph , 31 km/h
Temperature: 5°C
Wind Chill: 0°C
Dew Point: 1°C
Humidity: 76%
Barometer: 989 hPa
Clouds: Few Clouds
Visibility: 6 miles , 10 km
Cloud details: Few Clouds 457 m
2020/01/27 14:50 EGPN 271450Z 24017KT 9999 FEW015 05/01 Q0989
EGNT - Newcastle, United Kingdom
Distance from station: SE 72mi, 116km
Updated: 27/01/2020 14:50
Partly cloudy
Partly cloudy
 Wind from SW
Wind: SW 13 mph , 20 km/h
Temperature: 5°C
Wind Chill: 1°C
Dew Point: 2°C
Humidity: 81%
Barometer: 992 hPa
Clouds: Partly cloudy
Visibility: 6 miles , 10 km
Cloud details: Partly cloudy 792 m
2020/01/27 14:50 EGNT 271450Z 22011KT 9999 SCT026 05/02 Q0992
 
EGNV - Tees-Side, United Kingdom
Distance from station: SE 104mi, 168km
Updated: 27/01/2020 14:50
Partly cloudy
Partly cloudy
 Wind from S
Wind: S 13 mph , 20 km/h
Temperature: 6°C
Wind Chill: 2°C
Dew Point: 2°C
Humidity: 76%
Barometer: 993 hPa
Clouds: Partly cloudy
Visibility: 6 miles , 10 km
Cloud details: Few Clouds 366 m
Partly cloudy 762 m
2020/01/27 14:50 EGNV 271450Z 19011KT 9999 FEW012 SCT025 06/02 Q0993
EGPD - Aberdeen/Dyce, United Kingdom
Distance from station: NNE 114mi, 183km
Updated: 27/01/2020 14:50
Partly cloudy
Partly cloudy
 Wind from SSW
Wind: SSW 13 mph , 20 km/h
Temperature: 4°C
Wind Chill: -1°C
Dew Point: -1°C
Humidity: 70%
Barometer: 987 hPa
Clouds: Partly cloudy
Visibility: 6 miles , 10 km
Cloud details: Partly cloudy 853 m
2020/01/27 14:50 EGPD 271450Z 21011KT 9999 SCT028 04/M01 Q0987 NOSIG
 
EGNS - Isle Of Man/Rona, United Kingdom
Distance from station: SSW 122mi, 197km
Updated: 27/01/2020 14:50
Few Clouds
Few Clouds
 Wind from SSW
Wind: SSW 15 mph , 24 km/h
Temperature: 7°C
Wind Chill: 3°C
Dew Point: -1°C
Humidity: 57%
Barometer: 990 hPa
Clouds: Few Clouds
Visibility: 6 miles , 10 km
Cloud details: Few Clouds 914 m
2020/01/27 14:50 EGNS 271450Z 21013KT 9999 FEW030 07/M01 Q0990 NOSIG
EGAC - Belfast Harbour, United Kingdom
Distance from station: WSW 128mi, 206km
Updated: 27/01/2020 14:50
Clear
Clear
 Wind from SSW
Wind: SSW 14 mph , 22 km/h
Temperature: 5°C
Wind Chill: 1°C
Dew Point: 1°C
Humidity: 76%
Barometer: 989 hPa
Clouds: Clear
Visibility: 6 miles , 10 km
2020/01/27 14:50 EGAC 271450Z AUTO 20012KT 9999 NCD 05/01 Q0989
 
EGPE - Inverness/Dalcro, United Kingdom
Distance from station: NNW 134mi, 215km
Updated: 27/01/2020 14:50
Partly cloudy
Partly cloudy
 Wind from SW
Wind: SW 13 mph , 20 km/h
Temperature: 3°C
Wind Chill: -2°C
Dew Point: 0°C
Humidity: 81%
Barometer: 985 hPa
Clouds: Partly cloudy
Visibility: 6 miles , 10 km
Cloud details: Few Clouds 183 m
Partly cloudy 671 m
2020/01/27 14:50 EGPE 271450Z 22011KT 9999 FEW006 SCT022 03/00 Q0985
XHTML 1.1 | CSS